Terminal Aerodrome Forecast
Issued by NWS Wilmington, NC

Home | Current Version | Previous Version | Text Only | Print | Product List | Glossary On
Versions: 1 2 3 4 5 6 7 8 9 10 11 12 13 14 15 16 17 18 19 20
833
FTUS42 KILM 261723
TAFILM
TAF
KILM 261723Z 2618/2718 23011KT P6SM FEW050
      TEMPO 2618/2622 21011G20KT SCT050
     FM270100 20005KT P6SM SKC
     FM270600 21009KT P6SM SCT015
     FM271600 21011G20KT P6SM FEW050 FEW250=

USA.gov is the U.S. government's official web portal to all federal, state and local government web resources and services.